Time,TemperatureF,DewpointF,PressureIn,WindDirection,WindDirectionDegrees,WindSpeedMPH,WindSpeedGustMPH,Humidity,HourlyPrecipIn,Conditions,Clouds,dailyrainin,SoftwareType,DateUTC
2013-02-10 00:00:00,71.4,61.0,30.19,NE,35,4.0,7.8,70,0.00,,---,0.00,VWS V13.01,2013-02-10 05:00:00,
2013-02-10 00:01:00,71.3,60.9,30.19,NE,35,2.2,7.7,70,0.00,,---,0.00,VWS V13.01,2013-02-10 05:01:00,
2013-02-10 00:03:00,71.2,60.8,30.19,NE,48,5.2,9.2,70,0.00,,---,0.00,VWS V13.01,2013-02-10 05:03:00,
2013-02-10 00:04:00,71.1,60.7,30.19,NE,39,10.3,10.5,70,0.00,,---,0.00,VWS V13.01,2013-02-10 05:04:00,
2013-02-10 00:09:00,71.4,60.3,30.19,NE,48,3.4,7.9,68,0.00,,---,0.00,VWS V13.01,2013-02-10 05:09:00,
2013-02-10 00:14:00,71.2,60.4,30.19,NNE,14,3.6,11.1,69,0.00,,---,0.00,VWS V13.01,2013-02-10 05:14:00,
2013-02-10 00:19:00,71.3,60.6,30.19,NE,39,3.2,9.8,69,0.00,,---,0.00,VWS V13.01,2013-02-10 05:19:00,
2013-02-10 00:24:00,71.4,60.7,30.19,NNE,17,2.7,5.9,69,0.00,,---,0.00,VWS V13.01,2013-02-10 05:24:00,
2013-02-10 00:29:00,71.1,60.3,30.19,East,83,4.2,6.8,69,0.00,,---,0.00,VWS V13.01,2013-02-10 05:29:00,
2013-02-10 00:34:00,71.1,60.4,30.19,NNE,31,6.0,11.1,69,0.00,,---,0.00,VWS V13.01,2013-02-10 05:34:00,
2013-02-10 00:39:00,71.2,60.4,30.18,NNE,20,7.3,10.9,69,0.00,,---,0.00,VWS V13.01,2013-02-10 05:39:00,
2013-02-10 00:44:00,71.4,60.3,30.19,NE,55,4.7,8.3,68,0.00,,---,0.00,VWS V13.01,2013-02-10 05:44:00,
2013-02-10 00:49:00,71.3,60.6,30.18,NNE,28,4.7,12.5,69,0.00,,---,0.00,VWS V13.01,2013-02-10 05:49:00,
2013-02-10 00:54:00,71.3,60.9,30.18,ENE,59,5.7,9.0,70,0.00,,---,0.00,VWS V13.01,2013-02-10 05:54:00,
2013-02-10 00:59:00,71.3,60.9,30.18,NE,46,8.2,8.6,70,0.00,,---,0.00,VWS V13.01,2013-02-10 05:59:00,
2013-02-10 01:04:00,71.3,60.9,30.18,NNE,32,6.9,9.1,70,0.00,,---,0.00,VWS V13.01,2013-02-10 06:04:00,
2013-02-10 01:09:00,71.3,60.9,30.18,North,7,8.8,9.7,70,0.00,,---,0.00,VWS V13.01,2013-02-10 06:09:00,
2013-02-10 01:14:00,71.4,61.1,30.18,NNE,18,2.5,8.3,70,0.00,,---,0.00,VWS V13.01,2013-02-10 06:14:00,
2013-02-10 01:19:00,71.2,60.9,30.18,NE,48,6.3,12.0,70,0.00,,---,0.00,VWS V13.01,2013-02-10 06:19:00,
2013-02-10 01:24:00,71.1,60.7,30.18,NNW,342,4.3,9.9,70,0.00,,---,0.00,VWS V13.01,2013-02-10 06:24:00,
2013-02-10 01:29:00,71.2,60.7,30.18,NNE,18,5.7,12.1,69,0.00,,---,0.00,VWS V13.01,2013-02-10 06:29:00,
2013-02-10 01:34:00,71.4,60.7,30.18,ENE,66,5.0,9.4,69,0.00,,---,0.00,VWS V13.01,2013-02-10 06:34:00,
2013-02-10 01:39:00,71.5,60.6,30.18,ENE,72,4.7,6.0,68,0.00,,---,0.00,VWS V13.01,2013-02-10 06:39:00,
2013-02-10 01:44:00,71.4,60.6,30.18,NE,41,3.9,7.5,69,0.00,,---,0.00,VWS V13.01,2013-02-10 06:44:00,
2013-02-10 01:49:00,71.5,60.6,30.18,NNE,14,2.4,8.0,69,0.00,,---,0.00,VWS V13.01,2013-02-10 06:49:00,
2013-02-10 01:54:00,71.3,60.1,30.18,NE,45,10.6,11.6,68,0.00,,---,0.00,VWS V13.01,2013-02-10 06:54:00,
2013-02-10 01:59:00,71.2,60.0,30.18,ENE,65,3.8,6.0,68,0.00,,---,0.00,VWS V13.01,2013-02-10 06:59:00,
2013-02-10 02:04:00,71.2,59.6,30.18,NE,51,3.5,8.3,67,0.00,,---,0.00,VWS V13.01,2013-02-10 07:04:00,
2013-02-10 02:09:00,71.2,59.0,30.18,NE,42,2.8,4.5,65,0.00,,---,0.00,VWS V13.01,2013-02-10 07:09:00,
2013-02-10 02:14:00,71.1,58.5,30.18,NE,53,5.5,10.5,64,0.00,,---,0.00,VWS V13.01,2013-02-10 07:14:00,
2013-02-10 02:19:00,71.3,58.2,30.18,NE,39,2.7,7.0,63,0.00,,---,0.00,VWS V13.01,2013-02-10 07:19:00,
2013-02-10 02:24:00,71.2,57.6,30.18,NE,46,4.5,7.6,62,0.00,,---,0.00,VWS V13.01,2013-02-10 07:24:00,
2013-02-10 02:29:00,71.2,58.1,30.17,NE,51,3.4,7.8,63,0.00,,---,0.00,VWS V13.01,2013-02-10 07:29:00,
2013-02-10 02:34:00,71.1,58.4,30.17,NE,38,1.4,7.8,64,0.00,,---,0.00,VWS V13.01,2013-02-10 07:34:00,
2013-02-10 02:39:00,71.0,58.4,30.17,North,11,7.0,12.2,64,0.00,,---,0.00,VWS V13.01,2013-02-10 07:39:00,
2013-02-10 02:44:00,71.4,59.0,30.17,NE,39,6.1,7.6,65,0.00,,---,0.00,VWS V13.01,2013-02-10 07:44:00,
2013-02-10 02:49:00,71.2,59.1,30.17,NNE,31,5.4,9.7,66,0.00,,---,0.00,VWS V13.01,2013-02-10 07:49:00,
2013-02-10 02:54:00,71.0,58.5,30.17,NNE,24,7.0,9.6,65,0.00,,---,0.00,VWS V13.01,2013-02-10 07:54:00,
2013-02-10 02:59:00,71.1,58.9,30.17,North,6,5.8,6.6,65,0.00,,---,0.00,VWS V13.01,2013-02-10 07:59:00,
2013-02-10 03:04:00,71.1,59.5,30.17,NE,49,3.4,6.3,67,0.00,,---,0.00,VWS V13.01,2013-02-10 08:04:00,
2013-02-10 03:09:00,71.1,59.8,30.17,NNE,21,6.5,9.0,68,0.00,,---,0.00,VWS V13.01,2013-02-10 08:09:00,
2013-02-10 03:14:00,71.3,60.4,30.17,NE,39,1.1,7.1,68,0.00,,---,0.00,VWS V13.01,2013-02-10 08:14:00,
2013-02-10 03:19:00,71.1,60.1,30.17,NE,35,6.5,12.4,68,0.00,,---,0.00,VWS V13.01,2013-02-10 08:19:00,
2013-02-10 03:24:00,71.3,60.3,30.17,NE,52,9.0,10.3,68,0.00,,---,0.00,VWS V13.01,2013-02-10 08:24:00,
2013-02-10 03:29:00,71.1,60.4,30.17,ENE,58,8.0,8.0,69,0.00,,---,0.00,VWS V13.01,2013-02-10 08:29:00,
2013-02-10 03:34:00,71.2,60.8,30.17,NE,45,6.2,9.9,70,0.00,,---,0.00,VWS V13.01,2013-02-10 08:34:00,
2013-02-10 03:39:00,71.0,60.9,30.17,NE,51,5.8,9.3,70,0.00,,---,0.00,VWS V13.01,2013-02-10 08:39:00,
2013-02-10 03:44:00,71.1,60.8,30.17,NE,53,7.0,7.1,70,0.00,,---,0.00,VWS V13.01,2013-02-10 08:44:00,
2013-02-10 03:49:00,71.0,61.0,30.17,NNW,345,4.8,10.9,71,0.00,,---,0.00,VWS V13.01,2013-02-10 08:49:00,
2013-02-10 03:54:00,71.2,61.3,30.17,NNE,22,5.2,6.6,71,0.00,,---,0.00,VWS V13.01,2013-02-10 08:54:00,
2013-02-10 03:59:00,71.1,61.4,30.17,ENE,60,3.2,7.5,71,0.00,,---,0.00,VWS V13.01,2013-02-10 08:59:00,
2013-02-10 04:04:00,71.0,61.2,30.17,NNE,25,6.8,10.7,71,0.00,,---,0.00,VWS V13.01,2013-02-10 09:04:00,
2013-02-10 04:09:00,71.0,61.5,30.17,NE,37,3.0,6.5,72,0.00,,---,0.00,VWS V13.01,2013-02-10 09:09:00,
2013-02-10 04:14:00,71.1,61.7,30.17,NNE,31,8.4,8.9,72,0.00,,---,0.00,VWS V13.01,2013-02-10 09:14:00,
2013-02-10 04:19:00,71.2,61.8,30.17,ENE,60,2.1,6.2,72,0.00,,---,0.00,VWS V13.01,2013-02-10 09:19:00,
2013-02-10 04:24:00,71.2,61.8,30.17,ENE,62,2.1,3.5,72,0.00,,---,0.00,VWS V13.01,2013-02-10 09:24:00,
2013-02-10 04:29:00,71.1,61.7,30.17,NNE,25,4.0,7.5,72,0.00,,---,0.00,VWS V13.01,2013-02-10 09:29:00,
2013-02-10 04:34:00,71.3,62.1,30.17,ENE,76,4.6,7.6,73,0.00,,---,0.00,VWS V13.01,2013-02-10 09:34:00,
2013-02-10 04:39:00,71.3,61.7,30.17,NNE,28,3.5,8.6,72,0.00,,---,0.00,VWS V13.01,2013-02-10 09:39:00,
2013-02-10 04:44:00,71.5,61.7,30.17,NE,39,5.8,7.0,71,0.00,,---,0.00,VWS V13.01,2013-02-10 09:44:00,
2013-02-10 04:49:00,71.5,61.6,30.17,NE,41,3.4,6.5,71,0.00,,---,0.00,VWS V13.01,2013-02-10 09:49:00,
2013-02-10 04:54:00,71.3,61.5,30.17,NE,48,10.7,11.6,71,0.00,,---,0.00,VWS V13.01,2013-02-10 09:54:00,
2013-02-10 04:59:00,71.5,61.6,30.17,NE,55,8.1,8.8,71,0.00,,---,0.00,VWS V13.01,2013-02-10 09:59:00,
2013-02-10 05:04:00,71.6,61.3,30.17,NE,38,6.4,11.8,70,0.00,,---,0.00,VWS V13.01,2013-02-10 10:04:00,
2013-02-10 05:09:00,71.7,61.2,30.17,ENE,58,3.5,6.6,70,0.00,,---,0.00,VWS V13.01,2013-02-10 10:09:00,
2013-02-10 05:14:00,71.8,61.1,30.17,NNE,20,4.8,7.7,69,0.00,,---,0.00,VWS V13.01,2013-02-10 10:14:00,
2013-02-10 05:19:00,71.9,61.1,30.17,NE,39,4.9,5.5,69,0.00,,---,0.00,VWS V13.01,2013-02-10 10:19:00,
2013-02-10 05:24:00,71.7,60.9,30.17,NE,45,6.0,7.3,69,0.00,,---,0.00,VWS V13.01,2013-02-10 10:24:00,
2013-02-10 05:29:00,71.5,60.5,30.18,NNE,15,6.3,8.7,68,0.00,,---,0.00,VWS V13.01,2013-02-10 10:29:00,
2013-02-10 05:34:00,71.6,60.4,30.18,NE,53,7.0,7.9,68,0.00,,---,0.00,VWS V13.01,2013-02-10 10:34:00,
2013-02-10 05:39:00,71.5,60.1,30.18,NE,38,3.7,9.4,67,0.00,,---,0.00,VWS V13.01,2013-02-10 10:39:00,
2013-02-10 05:44:00,71.6,60.0,30.18,NE,41,3.0,9.8,67,0.00,,---,0.00,VWS V13.01,2013-02-10 10:44:00,
2013-02-10 05:49:00,71.5,60.0,30.18,NE,45,7.6,9.6,67,0.00,,---,0.00,VWS V13.01,2013-02-10 10:49:00,
2013-02-10 05:54:00,71.6,60.1,30.18,NE,42,3.2,5.5,67,0.00,,---,0.00,VWS V13.01,2013-02-10 10:54:00,
2013-02-10 05:59:00,71.2,59.2,30.18,ENE,66,7.1,9.5,66,0.00,,---,0.00,VWS V13.01,2013-02-10 10:59:00,
2013-02-10 06:04:00,71.4,59.4,30.18,NE,34,8.5,8.7,66,0.00,,---,0.00,VWS V13.01,2013-02-10 11:04:00,
2013-02-10 06:09:00,71.5,59.3,30.19,NE,51,6.9,11.6,65,0.00,,---,0.00,VWS V13.01,2013-02-10 11:09:00,
2013-02-10 06:14:00,71.6,59.3,30.19,ENE,66,2.5,7.0,65,0.00,,---,0.00,VWS V13.01,2013-02-10 11:14:00,
2013-02-10 06:19:00,71.5,58.7,30.19,ENE,59,5.3,9.6,64,0.00,,---,0.00,VWS V13.01,2013-02-10 11:19:00,
2013-02-10 06:24:00,71.5,58.7,30.19,NNE,28,3.0,9.1,64,0.00,,---,0.00,VWS V13.01,2013-02-10 11:24:00,
2013-02-10 06:29:00,71.5,58.7,30.20,ENE,58,6.6,7.5,64,0.00,,---,0.00,VWS V13.01,2013-02-10 11:29:00,
2013-02-10 06:34:00,71.3,58.6,30.20,NE,34,4.1,9.6,64,0.00,,---,0.00,VWS V13.01,2013-02-10 11:34:00,
2013-02-10 06:39:00,71.4,58.8,30.20,NE,44,6.5,6.8,64,0.00,,---,0.00,VWS V13.01,2013-02-10 11:39:00,
2013-02-10 06:44:00,71.4,58.6,30.20,NE,34,3.2,7.4,64,0.00,,---,0.00,VWS V13.01,2013-02-10 11:44:00,
2013-02-10 06:49:00,71.2,58.3,30.20,NE,39,4.7,5.7,64,0.00,,---,0.00,VWS V13.01,2013-02-10 11:49:00,
2013-02-10 06:54:00,71.2,58.2,30.20,NE,46,2.5,4.3,64,0.00,,---,0.00,VWS V13.01,2013-02-10 11:54:00,
2013-02-10 06:59:00,71.2,58.5,30.20,NNE,14,5.9,8.1,64,0.00,,---,0.00,VWS V13.01,2013-02-10 11:59:00,
2013-02-10 07:04:00,71.6,58.9,30.21,NE,48,5.9,6.0,64,0.00,,---,0.00,VWS V13.01,2013-02-10 12:04:00,
2013-02-10 07:09:00,71.5,59.7,30.21,NE,53,7.1,8.9,66,0.00,,---,0.00,VWS V13.01,2013-02-10 12:09:00,
2013-02-10 07:14:00,71.5,62.6,30.21,NE,48,2.9,5.7,73,0.00,,---,0.00,VWS V13.01,2013-02-10 12:14:00,
2013-02-10 07:19:00,71.3,63.1,30.22,NE,45,7.7,11.0,75,0.00,,---,0.00,VWS V13.01,2013-02-10 12:19:00,
2013-02-10 07:24:00,71.3,63.0,30.22,NE,56,6.2,7.7,75,0.00,,---,0.00,VWS V13.01,2013-02-10 12:24:00,
2013-02-10 07:29:00,71.3,62.8,30.22,ENE,68,4.2,11.4,74,0.00,,---,0.00,VWS V13.01,2013-02-10 12:29:00,
2013-02-10 07:34:00,71.2,63.1,30.22,NNE,30,7.0,13.9,76,0.00,,---,0.00,VWS V13.01,2013-02-10 12:34:00,
2013-02-10 07:39:00,71.3,63.3,30.22,NNE,32,8.7,10.7,76,0.00,,---,0.00,VWS V13.01,2013-02-10 12:39:00,
2013-02-10 07:44:00,71.4,63.4,30.22,NE,42,10.6,13.0,76,0.00,,---,0.00,VWS V13.01,2013-02-10 12:44:00,
2013-02-10 07:49:00,71.4,63.5,30.22,North,359,6.4,9.2,76,0.00,,---,0.00,VWS V13.01,2013-02-10 12:49:00,
2013-02-10 07:54:00,71.4,63.5,30.22,NNE,17,5.3,13.3,76,0.00,,---,0.00,VWS V13.01,2013-02-10 12:54:00,
2013-02-10 07:59:00,71.3,63.3,30.22,NE,39,5.0,7.4,76,0.00,,---,0.00,VWS V13.01,2013-02-10 12:59:00,
2013-02-10 08:04:00,71.5,63.6,30.22,NE,51,6.3,10.6,76,0.00,,---,0.00,VWS V13.01,2013-02-10 13:04:00,
2013-02-10 08:09:00,71.5,63.4,30.22,North,4,5.5,12.2,76,0.00,,---,0.00,VWS V13.01,2013-02-10 13:09:00,
2013-02-10 08:14:00,71.7,63.4,30.23,ENE,72,3.5,8.5,75,0.00,,---,0.00,VWS V13.01,2013-02-10 13:14:00,
2013-02-10 08:19:00,71.9,63.9,30.22,ENE,62,2.1,9.6,76,0.00,,---,0.00,VWS V13.01,2013-02-10 13:19:00,
2013-02-10 08:24:00,71.7,64.2,30.22,NNE,21,8.5,20.5,77,0.00,,---,0.00,VWS V13.01,2013-02-10 13:24:00,
2013-02-10 08:29:00,71.9,64.7,30.23,NNW,346,5.2,9.5,78,0.00,,---,0.00,VWS V13.01,2013-02-10 13:29:00,
2013-02-10 08:34:00,72.1,64.2,30.23,NE,51,6.1,10.7,76,0.00,,---,0.00,VWS V13.01,2013-02-10 13:34:00,
2013-02-10 08:39:00,72.2,64.4,30.23,North,4,8.3,14.0,76,0.00,,---,0.00,VWS V13.01,2013-02-10 13:39:00,
2013-02-10 08:44:00,72.4,64.4,30.23,NE,35,14.3,14.3,76,0.00,,---,0.00,VWS V13.01,2013-02-10 13:44:00,
2013-02-10 08:49:00,72.5,64.0,30.23,NE,41,13.5,19.9,75,0.00,,---,0.00,VWS V13.01,2013-02-10 13:49:00,
2013-02-10 08:54:00,72.8,65.1,30.24,NE,41,6.9,10.5,77,0.00,,---,0.00,VWS V13.01,2013-02-10 13:54:00,
2013-02-10 08:59:00,72.3,64.9,30.24,NNE,31,13.0,15.7,78,0.00,,---,0.00,VWS V13.01,2013-02-10 13:59:00,
2013-02-10 09:04:00,71.8,64.6,30.24,NE,53,6.4,10.1,78,0.00,,---,0.00,VWS V13.01,2013-02-10 14:04:00,
2013-02-10 09:09:00,72.0,64.5,30.24,NW,311,6.3,12.7,77,0.00,,---,0.00,VWS V13.01,2013-02-10 14:09:00,
2013-02-10 09:14:00,71.8,64.2,30.24,NE,38,7.2,9.6,77,0.00,,---,0.00,VWS V13.01,2013-02-10 14:14:00,
2013-02-10 09:19:00,71.6,64.4,30.25,NE,35,9.5,15.6,78,0.00,,---,0.00,VWS V13.01,2013-02-10 14:19:00,
2013-02-10 09:24:00,71.6,65.0,30.25,NE,39,13.4,14.4,80,0.00,,---,0.00,VWS V13.01,2013-02-10 14:24:00,
2013-02-10 09:29:00,71.7,65.3,30.25,NE,53,6.0,11.0,80,0.00,,---,0.00,VWS V13.01,2013-02-10 14:29:00,
2013-02-10 09:34:00,71.5,64.5,30.25,NE,46,16.2,16.7,79,0.00,,---,0.00,VWS V13.01,2013-02-10 14:34:00,
2013-02-10 09:39:00,71.7,65.1,30.25,NE,55,7.2,18.0,80,0.00,,---,0.00,VWS V13.01,2013-02-10 14:39:00,
2013-02-10 09:44:00,71.7,64.9,30.26,NE,51,6.0,9.2,79,0.00,,---,0.00,VWS V13.01,2013-02-10 14:44:00,
2013-02-10 09:49:00,71.7,64.8,30.26,NE,46,2.2,9.6,79,0.00,,---,0.00,VWS V13.01,2013-02-10 14:49:00,
2013-02-10 09:54:00,71.8,64.5,30.26,NNE,28,7.2,11.4,78,0.00,,---,0.00,VWS V13.01,2013-02-10 14:54:00,
2013-02-10 09:59:00,71.9,64.9,30.26,NE,34,9.3,11.9,79,0.00,,---,0.00,VWS V13.01,2013-02-10 14:59:00,
2013-02-10 10:04:00,71.2,65.9,30.27,NNE,24,6.5,16.2,83,0.01,,---,0.01,VWS V13.01,2013-02-10 15:04:00,
2013-02-10 10:09:00,70.5,66.2,30.27,NNE,25,3.9,6.4,86,0.02,,---,0.02,VWS V13.01,2013-02-10 15:09:00,
2013-02-10 10:14:00,69.9,65.8,30.26,NE,51,6.3,10.6,87,0.02,,---,0.02,VWS V13.01,2013-02-10 15:14:00,
2013-02-10 10:19:00,69.8,65.7,30.26,North,0,5.3,13.7,87,0.02,,---,0.02,VWS V13.01,2013-02-10 15:19:00,
2013-02-10 10:24:00,70.2,66.0,30.26,NE,38,7.3,7.3,87,0.02,,---,0.02,VWS V13.01,2013-02-10 15:24:00,
2013-02-10 10:29:00,70.7,66.1,30.27,NNE,18,8.8,12.7,85,0.02,,---,0.02,VWS V13.01,2013-02-10 15:29:00,
2013-02-10 10:34:00,71.0,66.5,30.27,NE,35,4.2,8.3,86,0.02,,---,0.02,VWS V13.01,2013-02-10 15:34:00,
2013-02-10 10:39:00,71.7,66.5,30.27,NW,323,2.8,6.9,84,0.02,,---,0.02,VWS V13.01,2013-02-10 15:39:00,
2013-02-10 10:44:00,72.0,65.9,30.27,NE,41,4.5,8.1,81,0.02,,---,0.02,VWS V13.01,2013-02-10 15:44:00,
2013-02-10 10:49:00,72.4,65.9,30.27,East,87,2.5,3.4,80,0.02,,---,0.02,VWS V13.01,2013-02-10 15:49:00,
2013-02-10 10:54:00,72.7,65.2,30.27,East,84,1.2,4.0,77,0.02,,---,0.02,VWS V13.01,2013-02-10 15:54:00,
2013-02-10 10:59:00,72.8,65.6,30.27,NE,56,4.5,5.2,78,0.02,,---,0.02,VWS V13.01,2013-02-10 15:59:00,
2013-02-10 11:05:00,73.0,65.8,30.27,NE,56,4.5,4.5,78,0.01,,---,0.02,VWS V13.01,2013-02-10 16:05:00,
2013-02-10 11:10:00,73.0,65.0,30.27,NE,35,3.2,9.7,76,0.00,,---,0.02,VWS V13.01,2013-02-10 16:10:00,
2013-02-10 11:15:00,73.5,65.3,30.27,NNE,24,8.0,12.1,76,0.00,,---,0.02,VWS V13.01,2013-02-10 16:15:00,
2013-02-10 11:20:00,73.4,65.3,30.27,NNE,31,2.2,9.9,76,0.00,,---,0.02,VWS V13.01,2013-02-10 16:20:00,
2013-02-10 11:25:00,73.1,64.6,30.27,NE,53,4.8,7.8,75,0.00,,---,0.02,VWS V13.01,2013-02-10 16:25:00,
2013-02-10 11:30:00,72.9,64.8,30.27,NNE,27,5.7,8.3,76,0.00,,---,0.02,VWS V13.01,2013-02-10 16:30:00,
2013-02-10 11:35:00,72.4,65.0,30.27,ENE,69,4.2,8.4,78,0.00,,---,0.02,VWS V13.01,2013-02-10 16:35:00,
2013-02-10 11:40:00,72.3,65.9,30.27,NE,53,3.2,4.3,80,0.01,,---,0.03,VWS V13.01,2013-02-10 16:40:00,
2013-02-10 11:45:00,71.5,65.3,30.27,ENE,59,2.1,7.7,81,0.01,,---,0.03,VWS V13.01,2013-02-10 16:45:00,
2013-02-10 11:50:00,71.3,65.4,30.26,East,89,1.8,2.4,82,0.01,,---,0.03,VWS V13.01,2013-02-10 16:50:00,
2013-02-10 11:55:00,71.1,64.5,30.26,NE,34,3.9,8.9,80,0.01,,---,0.03,VWS V13.01,2013-02-10 16:55:00,
2013-02-10 12:00:00,71.5,64.7,30.26,NE,38,4.8,6.5,79,0.01,,---,0.03,VWS V13.01,2013-02-10 17:00:00,
2013-02-10 12:05:00,71.5,63.8,30.26,NE,44,4.0,13.9,77,0.01,,---,0.03,VWS V13.01,2013-02-10 17:05:00,
2013-02-10 12:10:00,72.2,63.9,30.26,East,94,6.3,12.7,75,0.01,,---,0.03,VWS V13.01,2013-02-10 17:10:00,
2013-02-10 12:15:00,72.3,63.7,30.25,NE,38,14.6,17.1,74,0.01,,---,0.03,VWS V13.01,2013-02-10 17:15:00,
2013-02-10 12:20:00,72.7,64.1,30.25,East,90,7.3,15.9,74,0.01,,---,0.03,VWS V13.01,2013-02-10 17:20:00,
2013-02-10 12:26:00,73.2,64.0,30.25,East,87,5.5,12.9,73,0.01,,---,0.03,VWS V13.01,2013-02-10 17:26:00,
2013-02-10 12:31:00,73.8,64.6,30.25,ENE,77,3.8,8.3,73,0.01,,---,0.03,VWS V13.01,2013-02-10 17:31:00,
2013-02-10 12:36:00,73.5,63.5,30.25,East,79,5.6,10.1,71,0.01,,---,0.03,VWS V13.01,2013-02-10 17:36:00,
2013-02-10 12:41:00,73.8,63.7,30.25,NE,51,5.7,7.3,71,0.00,,---,0.03,VWS V13.01,2013-02-10 17:41:00,
2013-02-10 12:46:00,73.6,63.6,30.24,NE,42,5.6,12.6,71,0.00,,---,0.03,VWS V13.01,2013-02-10 17:46:00,
2013-02-10 12:51:00,73.6,63.7,30.24,NE,39,7.9,12.8,71,0.00,,---,0.03,VWS V13.01,2013-02-10 17:51:00,
2013-02-10 12:56:00,73.6,63.9,30.24,ENE,68,2.5,6.3,72,0.00,,---,0.03,VWS V13.01,2013-02-10 17:56:00,
2013-02-10 13:01:00,73.5,63.6,30.24,ESE,103,6.3,12.1,71,0.00,,---,0.03,VWS V13.01,2013-02-10 18:01:00,
2013-02-10 13:06:00,73.4,63.6,30.24,ENE,62,3.2,8.8,71,0.00,,---,0.03,VWS V13.01,2013-02-10 18:06:00,
2013-02-10 13:11:00,73.1,62.7,30.24,ENE,65,8.6,20.6,70,0.00,,---,0.03,VWS V13.01,2013-02-10 18:11:00,
2013-02-10 13:16:00,73.7,63.7,30.23,ENE,62,3.4,6.6,71,0.00,,---,0.03,VWS V13.01,2013-02-10 18:16:00,
2013-02-10 13:21:00,73.7,63.0,30.23,NE,51,6.5,12.0,69,0.00,,---,0.03,VWS V13.01,2013-02-10 18:21:00,
2013-02-10 13:26:00,73.7,63.0,30.23,NE,34,9.1,13.2,69,0.00,,---,0.03,VWS V13.01,2013-02-10 18:26:00,
2013-02-10 13:31:00,73.6,63.3,30.23,ESE,103,3.0,8.1,70,0.00,,---,0.03,VWS V13.01,2013-02-10 18:31:00,
2013-02-10 13:36:00,73.6,62.6,30.23,NE,56,4.8,9.8,68,0.00,,---,0.03,VWS V13.01,2013-02-10 18:36:00,
2013-02-10 13:41:00,73.6,63.0,30.23,NNE,25,5.6,8.8,69,0.00,,---,0.03,VWS V13.01,2013-02-10 18:41:00,
2013-02-10 13:46:00,73.4,62.7,30.23,NE,38,8.2,12.4,69,0.00,,---,0.03,VWS V13.01,2013-02-10 18:46:00,
2013-02-10 13:51:00,73.4,63.0,30.23,NE,52,8.5,9.6,70,0.00,,---,0.03,VWS V13.01,2013-02-10 18:51:00,
2013-02-10 13:56:00,73.3,62.6,30.22,NNE,20,3.4,5.5,69,0.00,,---,0.03,VWS V13.01,2013-02-10 18:56:00,
2013-02-10 14:01:00,73.4,62.7,30.22,NE,37,11.2,11.2,69,0.00,,---,0.03,VWS V13.01,2013-02-10 19:01:00,
2013-02-10 14:06:00,73.7,63.3,30.22,NE,37,10.2,10.2,70,0.00,,---,0.03,VWS V13.01,2013-02-10 19:06:00,
2013-02-10 14:12:00,73.5,63.0,30.22,NNE,31,8.6,10.6,70,0.00,,---,0.03,VWS V13.01,2013-02-10 19:12:00,
2013-02-10 14:17:00,73.2,63.0,30.22,NE,41,7.8,13.2,70,0.00,,---,0.03,VWS V13.01,2013-02-10 19:17:00,
2013-02-10 14:22:00,73.3,63.2,30.21,East,101,4.8,6.5,71,0.00,,---,0.03,VWS V13.01,2013-02-10 19:22:00,
2013-02-10 14:27:00,73.2,62.8,30.21,NE,39,6.2,10.7,70,0.00,,---,0.03,VWS V13.01,2013-02-10 19:27:00,
2013-02-10 14:32:00,73.4,63.0,30.21,ENE,62,3.0,8.5,70,0.00,,---,0.03,VWS V13.01,2013-02-10 19:32:00,
2013-02-10 14:37:00,73.4,63.0,30.21,ENE,58,8.1,9.6,70,0.00,,---,0.03,VWS V13.01,2013-02-10 19:37:00,
2013-02-10 14:42:00,73.9,63.2,30.20,NNE,18,5.7,5.7,69,0.00,,---,0.03,VWS V13.01,2013-02-10 19:42:00,
2013-02-10 14:47:00,74.3,62.6,30.20,NE,55,5.0,10.3,67,0.00,,---,0.03,VWS V13.01,2013-02-10 19:47:00,
2013-02-10 14:52:00,74.1,62.7,30.20,NNE,24,6.7,12.2,68,0.00,,---,0.03,VWS V13.01,2013-02-10 19:52:00,
2013-02-10 14:57:00,74.0,63.1,30.20,NE,49,4.7,15.8,69,0.00,,---,0.03,VWS V13.01,2013-02-10 19:57:00,
2013-02-10 15:02:00,73.9,63.0,30.20,NNE,28,5.8,13.4,69,0.00,,---,0.03,VWS V13.01,2013-02-10 20:02:00,
2013-02-10 15:07:00,73.7,62.9,30.20,NE,35,3.4,3.8,69,0.00,,---,0.03,VWS V13.01,2013-02-10 20:07:00,
2013-02-10 15:12:00,73.3,62.6,30.20,NE,41,8.6,13.2,69,0.00,,---,0.03,VWS V13.01,2013-02-10 20:12:00,
2013-02-10 15:17:00,73.6,63.1,30.20,NNE,24,9.1,10.6,70,0.00,,---,0.03,VWS V13.01,2013-02-10 20:17:00,
2013-02-10 15:22:00,74.1,63.0,30.20,North,11,8.7,11.9,68,0.00,,---,0.03,VWS V13.01,2013-02-10 20:22:00,
2013-02-10 15:27:00,74.2,63.1,30.20,NE,34,6.0,6.9,68,0.00,,---,0.03,VWS V13.01,2013-02-10 20:27:00,
2013-02-10 15:32:00,74.3,62.9,30.19,NE,41,8.2,9.2,68,0.00,,---,0.03,VWS V13.01,2013-02-10 20:32:00,
2013-02-10 15:38:00,74.6,63.4,30.19,NE,44,3.4,7.9,68,0.00,,---,0.03,VWS V13.01,2013-02-10 20:38:00,
2013-02-10 15:43:00,74.1,62.9,30.19,NE,45,6.2,8.8,68,0.00,,---,0.03,VWS V13.01,2013-02-10 20:43:00,
2013-02-10 15:48:00,73.8,62.8,30.19,NE,44,4.0,9.6,69,0.00,,---,0.03,VWS V13.01,2013-02-10 20:48:00,
2013-02-10 15:53:00,73.7,63.0,30.19,ENE,58,6.6,14.9,69,0.00,,---,0.03,VWS V13.01,2013-02-10 20:53:00,
2013-02-10 15:58:00,73.5,62.6,30.19,NE,52,8.2,8.4,69,0.00,,---,0.03,VWS V13.01,2013-02-10 20:58:00,
2013-02-10 16:03:00,73.7,63.1,30.19,NNE,22,4.4,7.9,70,0.00,,---,0.03,VWS V13.01,2013-02-10 21:03:00,
2013-02-10 16:08:00,73.6,62.9,30.19,ENE,58,4.4,11.4,69,0.00,,---,0.03,VWS V13.01,2013-02-10 21:08:00,
2013-02-10 16:13:00,73.6,62.9,30.19,East,83,2.7,5.0,69,0.00,,---,0.03,VWS V13.01,2013-02-10 21:13:00,
2013-02-10 16:18:00,73.6,62.7,30.19,North,4,10.9,13.6,69,0.00,,---,0.03,VWS V13.01,2013-02-10 21:18:00,
2013-02-10 16:23:00,73.9,63.3,30.19,ENE,73,2.3,6.2,70,0.00,,---,0.03,VWS V13.01,2013-02-10 21:23:00,
2013-02-10 16:28:00,73.8,63.0,30.19,ENE,59,4.8,12.9,69,0.00,,---,0.03,VWS V13.01,2013-02-10 21:28:00,
2013-02-10 16:33:00,73.9,63.3,30.19,ENE,75,4.7,6.8,70,0.00,,---,0.03,VWS V13.01,2013-02-10 21:33:00,
2013-02-10 16:38:00,73.8,63.0,30.19,ENE,65,3.4,4.2,69,0.00,,---,0.03,VWS V13.01,2013-02-10 21:38:00,
2013-02-10 16:43:00,73.8,63.1,30.19,NNE,25,9.3,9.3,69,0.00,,---,0.03,VWS V13.01,2013-02-10 21:43:00,
2013-02-10 16:48:00,73.9,63.1,30.19,NE,55,8.0,9.3,69,0.00,,---,0.03,VWS V13.01,2013-02-10 21:48:00,
2013-02-10 16:53:00,73.6,62.6,30.19,NE,55,5.4,13.7,68,0.00,,---,0.03,VWS V13.01,2013-02-10 21:53:00,
2013-02-10 16:58:00,73.4,62.7,30.20,NE,46,7.5,8.3,69,0.00,,---,0.03,VWS V13.01,2013-02-10 21:58:00,
2013-02-10 17:04:00,73.4,63.0,30.19,East,80,4.2,7.0,70,0.00,,---,0.03,VWS V13.01,2013-02-10 22:04:00,
2013-02-10 17:09:00,73.3,62.9,30.19,ENE,73,1.4,5.3,70,0.00,,---,0.03,VWS V13.01,2013-02-10 22:09:00,
2013-02-10 17:14:00,73.3,62.7,30.19,ENE,60,7.1,10.3,70,0.00,,---,0.03,VWS V13.01,2013-02-10 22:14:00,
2013-02-10 17:19:00,73.4,62.8,30.19,East,79,3.4,9.1,69,0.00,,---,0.03,VWS V13.01,2013-02-10 22:19:00,
2013-02-10 17:24:00,73.1,62.4,30.19,ENE,66,3.8,8.3,69,0.00,,---,0.03,VWS V13.01,2013-02-10 22:24:00,
2013-02-10 17:29:00,73.5,62.5,30.19,ENE,73,5.3,5.3,68,0.00,,---,0.03,VWS V13.01,2013-02-10 22:29:00,
2013-02-10 17:34:00,73.2,62.3,30.19,ENE,59,8.1,8.1,69,0.00,,---,0.03,VWS V13.01,2013-02-10 22:34:00,
2013-02-10 17:39:00,73.1,62.2,30.19,ENE,63,5.3,6.3,69,0.00,,---,0.03,VWS V13.01,2013-02-10 22:39:00,
2013-02-10 17:44:00,72.8,62.2,30.19,NE,37,5.0,7.6,69,0.00,,---,0.03,VWS V13.01,2013-02-10 22:44:00,
2013-02-10 17:49:00,72.8,62.5,30.19,NNE,30,8.3,9.8,70,0.00,,---,0.03,VWS V13.01,2013-02-10 22:49:00,
2013-02-10 17:54:00,72.8,62.3,30.19,East,97,2.6,6.3,70,0.00,,---,0.03,VWS V13.01,2013-02-10 22:54:00,
2013-02-10 17:59:00,72.7,62.2,30.19,East,79,2.9,5.9,70,0.00,,---,0.03,VWS V13.01,2013-02-10 22:59:00,
2013-02-10 18:04:00,72.6,62.3,30.19,ENE,60,3.4,13.0,70,0.00,,---,0.03,VWS V13.01,2013-02-10 23:04:00,
2013-02-10 18:09:00,72.5,62.2,30.19,ENE,75,3.6,4.4,70,0.00,,---,0.03,VWS V13.01,2013-02-10 23:09:00,
2013-02-10 18:14:00,72.5,62.1,30.19,NE,53,4.5,4.5,70,0.00,,---,0.03,VWS V13.01,2013-02-10 23:14:00,
2013-02-10 18:19:00,72.7,62.5,30.20,NE,51,3.7,4.5,70,0.00,,---,0.03,VWS V13.01,2013-02-10 23:19:00,
2013-02-10 18:24:00,72.3,62.1,30.20,SE,124,2.6,7.1,70,0.00,,---,0.03,VWS V13.01,2013-02-10 23:24:00,
2013-02-10 18:30:00,72.5,62.2,30.20,NE,56,3.2,5.2,70,0.00,,---,0.03,VWS V13.01,2013-02-10 23:30:00,
2013-02-10 18:35:00,72.4,62.1,30.20,East,79,6.6,11.4,70,0.00,,---,0.03,VWS V13.01,2013-02-10 23:35:00,
2013-02-10 18:40:00,72.4,62.1,30.20,NNE,30,5.8,11.3,70,0.00,,---,0.03,VWS V13.01,2013-02-10 23:40:00,
2013-02-10 18:45:00,72.5,62.2,30.20,ENE,60,3.5,6.3,70,0.00,,---,0.03,VWS V13.01,2013-02-10 23:45:00,
2013-02-10 18:50:00,72.5,62.3,30.20,NE,53,4.7,9.4,70,0.00,,---,0.03,VWS V13.01,2013-02-10 23:50:00,
2013-02-10 18:55:00,72.4,62.4,30.20,NE,42,4.3,10.4,71,0.00,,---,0.03,VWS V13.01,2013-02-10 23:55:00,
2013-02-10 19:00:00,72.6,62.3,30.20,North,11,3.0,8.5,70,0.00,,---,0.03,VWS V13.01,2013-02-11 00:00:00,
2013-02-10 19:05:00,72.6,62.3,30.20,East,86,2.0,7.0,70,0.00,,---,0.03,VWS V13.01,2013-02-11 00:05:00,
2013-02-10 19:10:00,72.4,62.3,30.20,East,79,2.9,7.5,70,0.00,,---,0.03,VWS V13.01,2013-02-11 00:10:00,
2013-02-10 19:15:00,72.4,62.4,30.20,ENE,66,3.5,6.8,71,0.00,,---,0.03,VWS V13.01,2013-02-11 00:15:00,
2013-02-10 19:20:00,72.5,62.5,30.21,East,83,4.8,5.1,71,0.00,,---,0.03,VWS V13.01,2013-02-11 00:20:00,
2013-02-10 19:25:00,72.3,62.3,30.21,NE,44,4.2,7.3,71,0.00,,---,0.03,VWS V13.01,2013-02-11 00:25:00,
2013-02-10 19:30:00,72.4,62.5,30.21,NE,39,6.5,10.3,71,0.00,,---,0.03,VWS V13.01,2013-02-11 00:30:00,
2013-02-10 19:35:00,72.4,62.4,30.21,NNE,30,4.6,9.2,71,0.00,,---,0.03,VWS V13.01,2013-02-11 00:35:00,
2013-02-10 19:40:00,72.3,62.6,30.21,East,79,5.7,5.7,72,0.00,,---,0.03,VWS V13.01,2013-02-11 00:40:00,
2013-02-10 19:45:00,72.4,62.4,30.22,ENE,76,2.0,2.1,71,0.00,,---,0.03,VWS V13.01,2013-02-11 00:45:00,
2013-02-10 19:51:00,72.4,62.2,30.22,East,80,5.5,6.3,70,0.00,,---,0.03,VWS V13.01,2013-02-11 00:51:00,
2013-02-10 19:56:00,72.4,62.2,30.23,ESE,110,2.3,4.0,70,0.00,,---,0.03,VWS V13.01,2013-02-11 00:56:00,
2013-02-10 20:01:00,72.5,62.0,30.23,East,87,6.0,7.3,70,0.00,,---,0.03,VWS V13.01,2013-02-11 01:01:00,
2013-02-10 20:06:00,72.4,62.1,30.23,NE,55,3.6,8.5,70,0.00,,---,0.03,VWS V13.01,2013-02-11 01:06:00,
2013-02-10 20:11:00,72.5,62.4,30.23,ENE,73,1.6,4.9,71,0.00,,---,0.03,VWS V13.01,2013-02-11 01:11:00,
2013-02-10 20:16:00,72.5,62.6,30.23,NW,323,1.0,5.6,71,0.00,,---,0.03,VWS V13.01,2013-02-11 01:16:00,
2013-02-10 20:21:00,72.4,62.8,30.23,ENE,70,3.3,5.4,72,0.00,,---,0.03,VWS V13.01,2013-02-11 01:21:00,
2013-02-10 20:26:00,72.3,62.6,30.23,ENE,70,4.3,7.6,72,0.00,,---,0.03,VWS V13.01,2013-02-11 01:26:00,
2013-02-10 20:31:00,72.3,62.3,30.23,NE,45,6.6,9.3,71,0.00,,---,0.03,VWS V13.01,2013-02-11 01:31:00,
2013-02-10 20:36:00,72.5,62.5,30.23,NNE,18,3.7,5.8,71,0.00,,---,0.03,VWS V13.01,2013-02-11 01:36:00,
2013-02-10 20:41:00,72.5,62.6,30.23,NE,53,3.4,3.4,71,0.00,,---,0.03,VWS V13.01,2013-02-11 01:41:00,
2013-02-10 20:46:00,72.5,62.7,30.23,East,90,2.4,7.0,71,0.00,,---,0.03,VWS V13.01,2013-02-11 01:46:00,
2013-02-10 20:51:00,72.6,63.0,30.23,NE,48,2.8,8.6,72,0.00,,---,0.03,VWS V13.01,2013-02-11 01:51:00,
2013-02-10 20:56:00,72.6,62.9,30.23,East,87,1.9,5.2,72,0.00,,---,0.03,VWS V13.01,2013-02-11 01:56:00,
2013-02-10 21:01:00,72.3,62.7,30.23,NE,44,4.2,4.2,72,0.00,,---,0.03,VWS V13.01,2013-02-11 02:01:00,
2013-02-10 21:06:00,72.4,62.9,30.23,East,87,1.7,2.6,72,0.00,,---,0.03,VWS V13.01,2013-02-11 02:06:00,
2013-02-10 21:11:00,72.6,62.9,30.23,ENE,59,2.8,3.1,72,0.00,,---,0.03,VWS V13.01,2013-02-11 02:11:00,
2013-02-10 21:16:00,72.5,63.0,30.23,ENE,70,4.0,5.7,72,0.00,,---,0.03,VWS V13.01,2013-02-11 02:16:00,
2013-02-10 21:21:00,72.3,62.9,30.23,ENE,68,3.9,5.5,72,0.00,,---,0.03,VWS V13.01,2013-02-11 02:21:00,
2013-02-10 21:26:00,72.4,63.1,30.23,NE,51,2.7,3.0,72,0.00,,---,0.03,VWS V13.01,2013-02-11 02:26:00,
2013-02-10 21:31:00,72.4,62.8,30.24,NE,51,7.3,9.7,72,0.00,,---,0.03,VWS V13.01,2013-02-11 02:31:00,
2013-02-10 21:36:00,72.5,63.1,30.24,NNE,27,4.5,4.5,72,0.00,,---,0.03,VWS V13.01,2013-02-11 02:36:00,
2013-02-10 21:41:00,72.4,63.2,30.24,NE,34,6.5,8.6,73,0.00,,---,0.03,VWS V13.01,2013-02-11 02:41:00,
2013-02-10 21:46:00,72.2,63.0,30.24,NE,45,7.3,7.3,73,0.00,,---,0.03,VWS V13.01,2013-02-11 02:46:00,
2013-02-10 21:52:00,72.2,62.8,30.24,ENE,68,3.5,6.2,72,0.00,,---,0.03,VWS V13.01,2013-02-11 02:52:00,
2013-02-10 21:57:00,72.3,62.5,30.24,ENE,58,4.3,5.0,71,0.00,,---,0.03,VWS V13.01,2013-02-11 02:57:00,
2013-02-10 22:02:00,72.1,62.8,30.23,NE,44,4.0,4.8,72,0.00,,---,0.03,VWS V13.01,2013-02-11 03:02:00,
2013-02-10 22:07:00,72.2,63.1,30.23,ENE,60,4.8,6.3,73,0.00,,---,0.03,VWS V13.01,2013-02-11 03:07:00,
2013-02-10 22:12:00,72.3,63.3,30.23,NE,51,2.9,2.9,73,0.00,,---,0.03,VWS V13.01,2013-02-11 03:12:00,
2013-02-10 22:17:00,72.3,63.2,30.23,ESE,115,1.9,3.7,73,0.00,,---,0.03,VWS V13.01,2013-02-11 03:17:00,
2013-02-10 22:22:00,72.3,63.2,30.23,East,89,2.7,4.5,73,0.00,,---,0.03,VWS V13.01,2013-02-11 03:22:00,
2013-02-10 22:27:00,72.2,63.2,30.23,East,79,6.5,7.5,73,0.00,,---,0.03,VWS V13.01,2013-02-11 03:27:00,
2013-02-10 22:32:00,72.1,62.9,30.23,East,101,5.8,7.1,73,0.00,,---,0.03,VWS V13.01,2013-02-11 03:32:00,
2013-02-10 22:37:00,72.0,62.6,30.23,ENE,72,2.9,11.1,72,0.00,,---,0.03,VWS V13.01,2013-02-11 03:37:00,
2013-02-10 22:42:00,72.1,62.9,30.22,NE,44,3.3,8.0,73,0.00,,---,0.03,VWS V13.01,2013-02-11 03:42:00,
2013-02-10 22:47:00,72.0,62.7,30.22,NE,53,6.0,7.1,73,0.00,,---,0.03,VWS V13.01,2013-02-11 03:47:00,
2013-02-10 22:52:00,72.0,62.7,30.22,ENE,75,2.7,5.1,73,0.00,,---,0.03,VWS V13.01,2013-02-11 03:52:00,
2013-02-10 22:57:00,71.6,62.2,30.23,ESE,110,4.5,6.4,72,0.00,,---,0.03,VWS V13.01,2013-02-11 03:57:00,
2013-02-10 23:02:00,71.6,62.1,30.23,ENE,70,1.1,3.9,72,0.00,,---,0.03,VWS V13.01,2013-02-11 04:02:00,
2013-02-10 23:07:00,71.7,62.4,30.23,East,93,4.2,6.4,72,0.00,,---,0.03,VWS V13.01,2013-02-11 04:07:00,
2013-02-10 23:12:00,71.5,62.3,30.23,East,82,7.3,12.7,73,0.00,,---,0.03,VWS V13.01,2013-02-11 04:12:00,
2013-02-10 23:17:00,71.7,62.4,30.22,NNE,31,5.0,9.3,72,0.00,,---,0.03,VWS V13.01,2013-02-11 04:17:00,
2013-02-10 23:23:00,71.8,62.6,30.22,East,79,3.1,4.0,73,0.00,,---,0.03,VWS V13.01,2013-02-11 04:23:00,
2013-02-10 23:28:00,71.8,62.6,30.22,East,84,6.8,6.8,73,0.00,,---,0.03,VWS V13.01,2013-02-11 04:28:00,
2013-02-10 23:33:00,71.6,62.1,30.22,East,96,5.5,9.3,72,0.00,,---,0.03,VWS V13.01,2013-02-11 04:33:00,
2013-02-10 23:38:00,71.6,62.5,30.22,SE,128,6.6,10.6,73,0.00,,---,0.03,VWS V13.01,2013-02-11 04:38:00,
2013-02-10 23:43:00,71.8,62.7,30.22,NNE,13,1.1,2.5,73,0.00,,---,0.03,VWS V13.01,2013-02-11 04:43:00,
2013-02-10 23:48:00,71.8,62.8,30.22,ENE,73,4.7,9.3,73,0.00,,---,0.03,VWS V13.01,2013-02-11 04:48:00,
2013-02-10 23:53:00,71.7,62.8,30.22,East,83,2.9,6.0,74,0.00,,---,0.03,VWS V13.01,2013-02-11 04:53:00,
2013-02-10 23:58:00,71.6,62.3,30.22,NE,34,5.9,6.6,73,0.00,,---,0.03,VWS V13.01,2013-02-11 04:58:00,